Time;durP1;ratioP1;P1;durP2;ratioP2;P2;SDS_P1;SDS_P2;PMS_P1;PMS_P2;Temp;Humidity;BMP_temperature;BMP_pressure;BME280_temperature;BME280_humidity;BME280_pressure;Samples;Min_cycle;Max_cycle;Signal;HPM_P1;HPM_P2
2022/01/03 00:01:36;;;;;;;19.03;3.07;;;11.40;99.90;;;;;;5033293;28;20513;-66
2022/01/03 00:04:03;;;;;;;16.37;3.03;;;11.30;99.90;;;;;;5033031;28;20967;-66
2022/01/03 00:06:31;;;;;;;13.70;2.40;;;11.30;99.90;;;;;;5033427;28;20454;-66
2022/01/03 00:08:59;;;;;;;12.00;3.03;;;11.30;99.90;;;;;;5033487;28;20501;-66
2022/01/03 00:11:27;;;;;;;19.73;3.60;;;11.30;99.90;;;;;;5033371;28;20458;-66
2022/01/03 00:13:54;;;;;;;14.87;2.50;;;11.30;99.90;;;;;;5033770;28;20449;-66
2022/01/03 00:16:23;;;;;;;9.40;2.43;;;11.20;99.90;;;;;;5033265;28;20450;-66
2022/01/03 00:18:51;;;;;;;20.00;3.63;;;11.30;99.90;;;;;;5033226;28;20474;-66
2022/01/03 00:21:19;;;;;;;10.87;2.40;;;11.20;99.90;;;;;;5036710;28;20469;-66
2022/01/03 00:23:50;;;;;;;8.83;2.90;;;11.20;99.90;;;;;;5036828;28;20462;-66
2022/01/03 00:26:23;;;;;;;12.20;3.53;;;11.20;99.90;;;;;;5037100;28;20460;-67
2022/01/03 00:28:57;;;;;;;15.30;2.00;;;11.20;99.90;;;;;;5036990;28;20470;-67
2022/01/03 00:31:33;;;;;;;15.20;2.70;;;11.20;99.90;;;;;;5036954;28;20533;-66
2022/01/03 00:34:00;;;;;;;9.53;2.87;;;11.20;99.90;;;;;;5036981;28;20426;-66
2022/01/03 00:36:29;;;;;;;13.43;3.20;;;11.20;99.90;;;;;;5036954;28;20453;-66
2022/01/03 00:38:56;;;;;;;14.47;2.60;;;11.20;99.90;;;;;;5036913;28;20447;-66
2022/01/03 00:41:23;;;;;;;12.33;3.30;;;11.20;99.90;;;;;;5036957;28;20466;-66
2022/01/03 00:43:54;;;;;;;18.20;3.20;;;11.20;99.90;;;;;;5036435;28;21006;-66
2022/01/03 00:46:22;;;;;;;9.10;2.83;;;11.30;99.90;;;;;;5036435;28;20433;-66
2022/01/03 00:48:49;;;;;;;15.20;2.87;;;11.20;99.90;;;;;;5036331;28;20983;-66
2022/01/03 00:51:19;;;;;;;19.50;3.20;;;11.30;99.90;;;;;;5036574;28;20836;-66
2022/01/03 00:53:47;;;;;;;14.47;3.37;;;11.30;99.90;;;;;;5036572;28;20537;-66
2022/01/03 00:56:16;;;;;;;14.17;4.20;;;11.30;99.90;;;;;;5036159;28;20481;-67
2022/01/03 00:58:52;;;;;;;13.03;2.93;;;11.30;99.90;;;;;;5036192;28;20952;-66
2022/01/03 01:01:23;;;;;;;10.43;2.67;;;11.30;99.90;;;;;;5036392;28;20470;-66
2022/01/03 01:03:54;;;;;;;15.57;3.10;;;11.30;99.90;;;;;;5036461;28;20433;-66
2022/01/03 01:06:22;;;;;;;19.90;3.47;;;11.30;99.90;;;;;;5036433;28;20430;-66
2022/01/03 01:08:54;;;;;;;11.00;2.53;;;11.40;99.90;;;;;;5036293;28;20490;-66
2022/01/03 01:11:25;;;;;;;14.23;3.40;;;11.30;99.90;;;;;;5036494;28;20470;-66
2022/01/03 01:13:53;;;;;;;15.30;3.23;;;11.40;99.90;;;;;;5036394;28;20431;-66
2022/01/03 01:16:22;;;;;;;21.67;4.50;;;11.30;99.90;;;;;;5036037;28;20982;-66
2022/01/03 01:18:50;;;;;;;17.00;3.10;;;11.30;99.90;;;;;;5035858;28;20438;-66
2022/01/03 01:21:17;;;;;;;15.43;3.23;;;11.30;99.90;;;;;;5036264;28;20470;-67
2022/01/03 01:23:44;;;;;;;11.43;3.57;;;11.30;99.90;;;;;;5036054;28;20465;-67
2022/01/03 01:28:56;;;;;;;14.03;3.70;;;11.20;99.90;;;;;;5036431;28;20859;-67
2022/01/03 01:31:25;;;;;;;16.17;2.93;;;11.20;99.90;;;;;;5035148;28;20454;-67
2022/01/03 01:33:55;;;;;;;20.53;3.60;;;11.20;99.90;;;;;;5036746;28;20789;-67
2022/01/03 01:36:28;;;;;;;11.53;2.43;;;11.20;99.90;;;;;;5035942;28;20449;-67
2022/01/03 01:39:01;;;;;;;12.40;2.03;;;11.20;99.90;;;;;;5035937;28;20427;-67
2022/01/03 01:41:29;;;;;;;15.50;2.70;;;11.10;99.90;;;;;;5035776;28;21018;-67
2022/01/03 01:43:59;;;;;;;11.50;2.60;;;11.10;99.90;;;;;;5035541;28;20967;-67
2022/01/03 01:46:28;;;;;;;12.87;3.13;;;11.10;99.90;;;;;;5035772;28;20431;-67
2022/01/03 01:48:55;;;;;;;12.17;2.67;;;11.10;99.90;;;;;;5035651;28;20489;-67
2022/01/03 01:51:24;;;;;;;10.70;2.57;;;11.00;99.90;;;;;;5035482;28;20471;-67
2022/01/03 01:53:53;;;;;;;23.50;4.17;;;11.00;99.90;;;;;;5035214;28;20944;-67
2022/01/03 01:56:22;;;;;;;9.03;2.10;;;11.10;99.90;;;;;;5035132;28;20925;-67
2022/01/03 01:59:10;;;;;;;14.73;2.37;;;11.00;99.90;;;;;;5035456;28;20450;-67
2022/01/03 02:01:44;;;;;;;9.50;2.53;;;11.00;99.90;;;;;;5035011;28;20550;-67
2022/01/03 02:04:20;;;;;;;10.60;2.53;;;11.00;99.90;;;;;;5035456;28;20438;-67
2022/01/03 02:06:48;;;;;;;17.57;4.30;;;11.00;99.90;;;;;;5035351;28;20530;-64
2022/01/03 02:09:20;;;;;;;10.27;2.87;;;11.00;99.90;;;;;;5035479;28;20482;-64
2022/01/03 02:11:52;;;;;;;18.63;2.73;;;11.00;99.90;;;;;;5035136;28;20470;-64
2022/01/03 02:14:42;;;;;;;17.80;4.60;;;11.00;99.90;;;;;;5035128;28;20455;-65
2022/01/03 02:17:10;;;;;;;16.23;3.20;;;11.00;99.90;;;;;;5035082;28;20450;-65
2022/01/03 02:19:39;;;;;;;9.40;2.70;;;11.00;99.90;;;;;;5034703;28;20454;-65
2022/01/03 02:22:06;;;;;;;12.80;2.17;;;11.10;99.90;;;;;;5034927;28;20431;-64
2022/01/03 02:24:33;;;;;;;9.83;2.40;;;11.00;99.90;;;;;;5034685;28;20441;-64
2022/01/03 02:27:02;;;;;;;15.30;3.00;;;11.10;99.90;;;;;;5034732;28;20933;-64
2022/01/03 02:29:29;;;;;;;9.00;2.40;;;11.10;99.90;;;;;;5034834;28;20573;-65
2022/01/03 02:31:55;;;;;;;8.73;2.40;;;11.10;99.90;;;;;;5034484;28;20446;-65
2022/01/03 02:34:23;;;;;;;8.03;2.40;;;11.10;99.90;;;;;;5034710;28;20442;-65
2022/01/03 02:36:52;;;;;;;10.60;2.30;;;11.10;99.90;;;;;;5034627;28;20453;-65
2022/01/03 02:39:19;;;;;;;12.50;2.50;;;11.10;99.90;;;;;;5035462;28;20783;-65
2022/01/03 02:41:46;;;;;;;14.40;2.77;;;11.10;99.90;;;;;;5034488;28;20470;-65
2022/01/03 02:44:13;;;;;;;7.90;2.50;;;11.00;99.90;;;;;;5033492;28;20453;-65
2022/01/03 02:46:41;;;;;;;14.63;2.50;;;11.10;99.90;;;;;;5034446;28;20485;-65
2022/01/03 02:49:08;;;;;;;15.77;3.77;;;11.10;99.90;;;;;;5034334;28;20478;-65
2022/01/03 02:51:35;;;;;;;15.00;2.70;;;11.10;99.90;;;;;;5034490;28;20474;-64
2022/01/03 02:54:03;;;;;;;10.27;3.50;;;11.00;99.90;;;;;;5034063;28;20802;-65
2022/01/03 02:56:33;;;;;;;10.83;3.00;;;11.10;99.90;;;;;;5034256;28;20833;-65
2022/01/03 02:59:00;;;;;;;15.93;2.90;;;11.00;99.90;;;;;;5034039;28;20974;-65
2022/01/03 03:01:27;;;;;;;17.87;2.43;;;10.90;99.90;;;;;;5034174;28;20481;-65
2022/01/03 03:03:53;;;;;;;10.40;2.93;;;10.90;99.90;;;;;;5034218;28;20438;-65
2022/01/03 03:06:20;;;;;;;17.50;2.90;;;10.90;99.90;;;;;;5033853;28;20454;-65
2022/01/03 03:08:47;;;;;;;14.80;2.53;;;10.80;99.90;;;;;;5034040;28;20490;-65
2022/01/03 03:11:15;;;;;;;15.87;4.00;;;10.80;99.90;;;;;;5034021;28;20474;-65
2022/01/03 03:13:42;;;;;;;7.23;1.57;;;10.80;99.90;;;;;;5034164;28;20816;-66
2022/01/03 03:16:09;;;;;;;14.73;3.40;;;10.80;99.90;;;;;;5034195;28;20453;-65
2022/01/03 03:18:35;;;;;;;16.37;2.90;;;10.80;99.90;;;;;;5034120;28;20442;-65
2022/01/03 03:21:02;;;;;;;12.73;3.00;;;10.80;99.90;;;;;;5033783;28;20999;-65
2022/01/03 03:23:29;;;;;;;6.60;2.53;;;10.90;99.90;;;;;;5033805;28;20466;-65
2022/01/03 03:25:55;;;;;;;12.07;3.50;;;10.80;99.90;;;;;;5033517;28;20449;-65
2022/01/03 03:28:25;;;;;;;11.17;2.50;;;10.80;99.90;;;;;;5033736;28;20486;-65
2022/01/03 03:30:52;;;;;;;16.23;4.33;;;10.80;99.90;;;;;;5033748;28;20836;-65
2022/01/03 03:33:21;;;;;;;12.13;2.80;;;10.80;99.90;;;;;;5033949;28;20457;-65
2022/01/03 03:35:50;;;;;;;9.00;2.53;;;10.80;99.90;;;;;;5033772;28;20545;-65
2022/01/03 03:38:17;;;;;;;9.27;2.53;;;10.80;99.90;;;;;;5033282;28;21002;-65
2022/01/03 03:40:45;;;;;;;10.53;2.20;;;10.80;99.90;;;;;;5033249;28;20462;-65
2022/01/03 03:43:13;;;;;;;6.20;1.70;;;10.80;99.90;;;;;;5033283;28;20972;-65
2022/01/03 03:45:41;;;;;;;8.40;2.10;;;10.80;99.90;;;;;;5033587;28;20442;-65
2022/01/03 03:48:08;;;;;;;12.60;2.17;;;10.80;99.90;;;;;;5033719;28;20451;-65
2022/01/03 03:50:35;;;;;;;14.47;3.53;;;10.70;99.90;;;;;;5033665;28;20462;-65
2022/01/03 03:53:03;;;;;;;13.33;3.00;;;10.70;99.90;;;;;;5033463;28;20454;-65
2022/01/03 03:55:31;;;;;;;14.27;2.60;;;10.80;99.90;;;;;;5033045;28;20454;-65
2022/01/03 03:57:58;;;;;;;13.10;2.63;;;10.70;99.90;;;;;;5033141;28;20541;-65
2022/01/03 04:00:25;;;;;;;11.50;4.60;;;10.70;99.90;;;;;;5033272;28;20467;-65
2022/01/03 04:02:53;;;;;;;13.67;2.60;;;10.70;99.90;;;;;;5033352;28;20449;-65
2022/01/03 04:05:20;;;;;;;15.70;2.90;;;10.70;99.90;;;;;;5033378;28;20454;-65
2022/01/03 04:07:47;;;;;;;15.20;2.80;;;10.70;99.90;;;;;;5033370;28;20431;-65
2022/01/03 04:10:15;;;;;;;9.77;2.20;;;10.70;99.90;;;;;;5033136;28;20490;-65
2022/01/03 04:12:43;;;;;;;10.90;3.57;;;10.80;99.90;;;;;;5033008;28;20925;-65
2022/01/03 04:15:10;;;;;;;8.53;2.20;;;10.80;99.90;;;;;;5033286;28;20443;-65
2022/01/03 04:17:37;;;;;;;11.90;2.40;;;10.70;99.90;;;;;;5033279;28;20447;-65
2022/01/03 04:20:07;;;;;;;13.97;2.40;;;10.70;99.90;;;;;;5033155;28;20455;-65
2022/01/03 04:22:34;;;;;;;8.47;2.33;;;10.80;99.90;;;;;;5033243;28;20454;-65
2022/01/03 04:25:00;;;;;;;6.10;3.10;;;10.80;99.90;;;;;;5033291;28;20442;-65
2022/01/03 04:27:27;;;;;;;12.40;2.30;;;10.70;99.90;;;;;;5032847;28;20790;-65
2022/01/03 04:29:54;;;;;;;10.83;2.20;;;10.70;99.90;;;;;;5033056;28;20494;-65
2022/01/03 04:32:21;;;;;;;15.30;2.83;;;10.70;99.90;;;;;;5033454;28;20443;-65
2022/01/03 04:34:47;;;;;;;9.63;3.33;;;10.70;99.90;;;;;;5033187;28;20453;-65
2022/01/03 04:37:15;;;;;;;10.67;2.53;;;10.70;99.90;;;;;;5033113;28;20439;-65
2022/01/03 04:39:42;;;;;;;11.90;2.60;;;10.70;99.90;;;;;;5032806;28;20433;-66
2022/01/03 04:42:09;;;;;;;11.70;2.77;;;10.70;99.90;;;;;;5033353;28;20446;-65
2022/01/03 04:44:36;;;;;;;14.43;3.10;;;10.80;99.90;;;;;;5033025;28;20447;-65
2022/01/03 04:47:04;;;;;;;14.03;3.47;;;10.70;99.90;;;;;;5033033;28;20446;-65
2022/01/03 04:49:30;;;;;;;11.63;3.13;;;10.80;99.90;;;;;;5032809;28;20482;-67
2022/01/03 04:51:57;;;;;;;9.53;2.30;;;10.80;99.90;;;;;;5032947;28;20454;-65
2022/01/03 04:54:25;;;;;;;11.77;2.50;;;10.80;99.90;;;;;;5032624;28;20948;-65
2022/01/03 04:56:57;;;;;;;11.03;2.20;;;10.80;99.90;;;;;;5032613;28;20458;-65
2022/01/03 04:59:24;;;;;;;10.90;2.67;;;10.80;99.90;;;;;;5032880;28;20441;-65
2022/01/03 05:01:50;;;;;;;11.90;3.00;;;10.70;99.90;;;;;;5032843;28;20474;-65
2022/01/03 05:04:17;;;;;;;18.20;2.37;;;10.70;99.90;;;;;;5032848;28;20446;-65
2022/01/03 05:06:44;;;;;;;8.27;2.50;;;10.70;99.90;;;;;;5033695;28;20453;-65
2022/01/03 05:09:10;;;;;;;12.30;3.80;;;10.80;99.90;;;;;;5035953;28;21014;-65
2022/01/03 05:11:38;;;;;;;10.23;3.13;;;10.80;99.90;;;;;;5036219;28;20473;-65
2022/01/03 05:14:05;;;;;;;12.40;3.50;;;10.80;99.90;;;;;;5036221;28;20792;-65
2022/01/03 05:16:32;;;;;;;15.40;2.90;;;10.80;99.90;;;;;;5036229;28;20453;-65
2022/01/03 05:18:59;;;;;;;12.07;2.53;;;10.80;99.90;;;;;;5036266;28;20454;-64
2022/01/03 05:21:26;;;;;;;13.43;2.53;;;10.80;99.90;;;;;;5035984;28;20482;-64
2022/01/03 05:23:52;;;;;;;11.60;2.60;;;10.80;99.90;;;;;;5036010;28;20467;-64
2022/01/03 05:26:19;;;;;;;15.60;2.67;;;10.80;99.90;;;;;;5035904;28;20450;-64
2022/01/03 05:28:48;;;;;;;17.87;3.47;;;10.80;99.90;;;;;;5036016;28;20446;-64
2022/01/03 05:31:15;;;;;;;10.77;3.10;;;10.80;99.90;;;;;;5035752;28;20470;-64
2022/01/03 05:33:42;;;;;;;16.97;2.77;;;10.80;99.90;;;;;;5035502;28;20908;-64
2022/01/03 05:36:09;;;;;;;15.93;3.67;;;10.90;99.90;;;;;;5035695;28;20455;-65
2022/01/03 05:38:36;;;;;;;16.67;4.67;;;10.90;99.90;;;;;;5035772;28;20486;-65
2022/01/03 05:41:03;;;;;;;10.13;2.83;;;10.90;99.90;;;;;;5035369;28;21007;-65
2022/01/03 05:43:29;;;;;;;18.90;3.10;;;10.90;99.90;;;;;;5035733;28;20450;-65
2022/01/03 05:45:57;;;;;;;23.67;4.30;;;10.90;99.90;;;;;;5035651;28;20497;-65
2022/01/03 05:48:24;;;;;;;11.87;2.63;;;10.90;99.90;;;;;;5035659;28;20803;-65
2022/01/03 05:50:51;;;;;;;14.40;6.57;;;10.90;99.90;;;;;;5035461;28;20491;-65
2022/01/03 05:53:18;;;;;;;14.90;3.43;;;10.90;99.90;;;;;;5035337;28;20446;-65
2022/01/03 05:55:46;;;;;;;13.07;2.73;;;10.90;99.90;;;;;;5035374;28;20454;-65
2022/01/03 05:58:13;;;;;;;15.90;2.90;;;10.90;99.90;;;;;;5035355;28;20446;-65
2022/01/03 06:00:40;;;;;;;13.67;3.00;;;10.90;99.90;;;;;;5035283;28;20462;-65
2022/01/03 06:03:08;;;;;;;19.17;3.33;;;11.00;99.90;;;;;;5035301;28;20541;-65
2022/01/03 06:06:05;;;;;;;13.70;2.50;;;11.00;99.90;;;;;;5035344;28;20473;-65
2022/01/03 06:08:32;;;;;;;10.13;3.23;;;11.00;99.90;;;;;;5035258;28;20500;-65
2022/01/03 06:10:59;;;;;;;18.07;3.60;;;10.90;99.90;;;;;;5035053;28;20486;-65
2022/01/03 06:13:26;;;;;;;14.80;3.10;;;11.00;99.90;;;;;;5035138;28;20454;-65
2022/01/03 06:15:53;;;;;;;15.27;2.67;;;10.90;99.90;;;;;;5035169;28;20434;-65
2022/01/03 06:18:21;;;;;;;7.70;2.70;;;11.00;99.90;;;;;;5034802;28;20796;-65
2022/01/03 06:20:49;;;;;;;14.90;2.50;;;11.00;99.90;;;;;;5035134;28;20465;-65
2022/01/03 06:23:19;;;;;;;11.93;2.90;;;10.80;99.90;;;;;;5034656;28;20839;-65
2022/01/03 06:25:46;;;;;;;9.30;2.50;;;10.90;99.90;;;;;;5034994;28;20450;-65
2022/01/03 06:28:13;;;;;;;14.23;2.90;;;10.80;99.90;;;;;;5034878;28;20541;-65
2022/01/03 06:30:42;;;;;;;14.30;3.20;;;10.80;99.90;;;;;;5034388;28;21019;-65
2022/01/03 06:33:10;;;;;;;16.20;3.13;;;10.80;99.90;;;;;;5034408;28;20452;-65
2022/01/03 06:35:39;;;;;;;20.10;3.90;;;10.80;99.90;;;;;;5034676;28;20453;-65
2022/01/03 06:38:06;;;;;;;9.63;2.53;;;10.80;99.90;;;;;;5034679;28;20463;-65
2022/01/03 06:40:32;;;;;;;13.70;2.37;;;10.70;99.90;;;;;;5034768;28;20473;-65
2022/01/03 06:42:59;;;;;;;12.60;2.60;;;10.70;99.90;;;;;;5034285;28;20457;-65
2022/01/03 06:45:26;;;;;;;17.10;3.10;;;10.80;99.90;;;;;;5034185;28;20455;-65
2022/01/03 06:47:53;;;;;;;11.90;2.60;;;10.80;99.90;;;;;;5034533;28;20449;-65
2022/01/03 06:50:20;;;;;;;10.63;2.43;;;10.80;99.90;;;;;;5034253;28;20489;-65
2022/01/03 06:52:48;;;;;;;6.70;2.17;;;10.80;99.90;;;;;;5034404;28;20441;-65
2022/01/03 06:55:16;;;;;;;16.70;2.70;;;10.70;99.90;;;;;;5034326;28;20488;-65
2022/01/03 06:57:42;;;;;;;10.20;2.63;;;10.80;99.90;;;;;;5034000;28;20450;-65
2022/01/03 07:00:10;;;;;;;8.80;2.63;;;10.80;99.90;;;;;;5034259;28;20462;-65
2022/01/03 07:02:40;;;;;;;13.77;4.10;;;10.80;99.90;;;;;;5034434;28;20449;-65
2022/01/03 07:05:07;;;;;;;10.53;3.77;;;10.80;99.90;;;;;;5034191;28;20427;-66
2022/01/03 07:07:34;;;;;;;14.07;2.70;;;10.80;99.90;;;;;;5034130;28;20442;-65
2022/01/03 07:10:02;;;;;;;9.53;3.00;;;10.70;99.90;;;;;;5033620;28;20509;-65
2022/01/03 07:12:29;;;;;;;14.97;4.03;;;10.80;99.90;;;;;;5034044;28;20470;-65
2022/01/03 07:20:29;;;;;;;16.13;3.07;;;10.70;99.90;;;;;;5013782;28;20455;-65
2022/01/03 07:22:56;;;;;;;15.37;3.10;;;10.70;99.90;;;;;;5033598;28;20454;-65
2022/01/03 07:25:24;;;;;;;7.77;2.27;;;10.70;99.90;;;;;;5033815;28;20449;-65
2022/01/03 07:27:51;;;;;;;10.17;2.73;;;10.60;99.90;;;;;;5034065;28;20430;-65
2022/01/03 07:30:19;;;;;;;30.50;3.90;;;10.60;99.90;;;;;;5032975;28;20490;-65
2022/01/03 07:32:45;;;;;;;23.07;5.03;;;10.50;99.90;;;;;;5033720;28;20455;-65
2022/01/03 07:35:16;;;;;;;14.87;3.60;;;10.60;99.90;;;;;;5033390;28;20940;-65
2022/01/03 07:37:42;;;;;;;14.80;3.30;;;10.60;99.90;;;;;;5033721;28;20435;-65
2022/01/03 07:40:10;;;;;;;12.53;2.90;;;10.60;99.90;;;;;;5033245;28;20473;-65
2022/01/03 07:42:40;;;;;;;9.40;2.73;;;10.60;99.90;;;;;;5033558;28;20450;-65
2022/01/03 07:45:08;;;;;;;11.17;2.97;;;10.70;99.90;;;;;;5033564;28;20469;-65
2022/01/03 07:47:34;;;;;;;12.00;3.40;;;10.70;99.90;;;;;;5033518;28;20455;-65
2022/01/03 07:50:01;;;;;;;10.83;2.63;;;10.70;99.90;;;;;;5033677;28;20561;-65
2022/01/03 07:52:28;;;;;;;10.80;2.57;;;10.70;99.90;;;;;;5033574;28;20443;-65
2022/01/03 07:54:55;;;;;;;11.23;3.20;;;10.70;99.90;;;;;;5033143;28;20821;-65
2022/01/03 07:57:22;;;;;;;18.23;3.47;;;10.70;99.90;;;;;;5033440;28;20501;-65
2022/01/03 07:59:50;;;;;;;16.70;3.40;;;10.70;99.90;;;;;;5033767;28;20442;-65
2022/01/03 08:02:18;;;;;;;10.80;2.97;;;10.70;99.90;;;;;;5033680;28;20462;-65
2022/01/03 08:04:45;;;;;;;11.67;2.53;;;10.70;99.90;;;;;;5033492;28;20459;-64
2022/01/03 08:07:12;;;;;;;13.53;3.63;;;10.70;99.90;;;;;;5033213;28;20971;-65
2022/01/03 08:09:39;;;;;;;13.13;2.83;;;10.70;99.90;;;;;;5033064;28;20482;-66
2022/01/03 08:12:07;;;;;;;9.10;2.47;;;10.70;99.90;;;;;;5033617;28;20451;-65
2022/01/03 08:14:34;;;;;;;10.90;2.50;;;10.70;99.90;;;;;;5033440;28;20450;-65
2022/01/03 08:17:02;;;;;;;9.87;2.73;;;10.80;99.90;;;;;;5033428;28;20457;-65
2022/01/03 08:19:29;;;;;;;14.87;3.13;;;10.80;99.90;;;;;;5032979;28;20940;-68
2022/01/03 08:21:56;;;;;;;10.63;3.77;;;10.70;99.90;;;;;;5033102;28;20474;-65
2022/01/03 08:24:22;;;;;;;10.53;3.00;;;10.80;99.90;;;;;;5033336;28;20449;-65
2022/01/03 08:26:50;;;;;;;13.40;4.03;;;10.80;99.90;;;;;;5033203;28;20458;-65
2022/01/03 08:29:17;;;;;;;14.17;3.70;;;10.80;99.90;;;;;;5033187;28;20472;-65
2022/01/03 08:31:44;;;;;;;14.17;3.37;;;10.90;99.90;;;;;;5034082;28;20531;-65
2022/01/03 08:34:12;;;;;;;9.07;2.60;;;10.90;99.90;;;;;;5032794;28;20945;-65
2022/01/03 08:36:39;;;;;;;14.73;4.00;;;10.90;99.90;;;;;;5033206;28;20455;-65
2022/01/03 08:39:06;;;;;;;16.50;2.93;;;11.00;99.90;;;;;;5033258;28;20806;-65
2022/01/03 08:41:33;;;;;;;11.70;3.03;;;11.00;99.90;;;;;;5035565;28;20462;-66
2022/01/03 08:44:00;;;;;;;10.77;3.70;;;11.00;99.90;;;;;;5036816;28;20450;-65
2022/01/03 08:46:27;;;;;;;20.20;4.63;;;10.90;99.90;;;;;;5037863;28;20446;-65
2022/01/03 08:48:55;;;;;;;17.70;3.50;;;11.00;99.90;;;;;;5036811;28;20450;-65
2022/01/03 08:51:25;;;;;;;17.73;2.90;;;11.00;99.90;;;;;;5036584;28;20490;-66
2022/01/03 08:53:52;;;;;;;12.77;3.10;;;11.00;99.90;;;;;;5037008;28;20529;-65
2022/01/03 08:56:19;;;;;;;8.80;2.97;;;11.00;99.90;;;;;;5036548;28;20446;-65
2022/01/03 08:58:45;;;;;;;13.50;3.10;;;11.10;99.90;;;;;;5036534;28;20446;-65
2022/01/03 09:01:12;;;;;;;12.00;3.20;;;11.10;99.90;;;;;;5036488;28;20489;-65
2022/01/03 09:03:39;;;;;;;20.37;5.10;;;11.10;99.90;;;;;;5036468;28;20529;-65
2022/01/03 09:06:06;;;;;;;25.10;5.27;;;11.00;99.90;;;;;;5036405;28;20453;-65
2022/01/03 09:08:34;;;;;;;11.90;3.23;;;11.10;99.90;;;;;;5036419;28;20450;-65
2022/01/03 09:11:00;;;;;;;8.37;2.70;;;11.10;99.90;;;;;;5036167;28;20516;-65
2022/01/03 09:13:27;;;;;;;9.70;3.20;;;11.20;99.90;;;;;;5036297;28;20451;-65
2022/01/03 09:15:54;;;;;;;10.90;2.73;;;11.20;99.90;;;;;;5036204;28;20453;-65
2022/01/03 09:18:24;;;;;;;11.87;3.50;;;11.20;99.90;;;;;;5035838;28;20446;-65
2022/01/03 09:20:51;;;;;;;11.93;2.60;;;11.30;99.90;;;;;;5035861;28;20467;-65
2022/01/03 09:23:23;;;;;;;13.50;2.73;;;11.30;99.90;;;;;;5036060;28;20462;-65
2022/01/03 09:28:56;;;;;;;10.87;3.40;;;11.30;99.90;;;;;;5036276;28;20414;-65
2022/01/03 09:31:26;;;;;;;9.67;2.30;;;11.30;99.90;;;;;;5035606;28;20493;-65
2022/01/03 09:33:54;;;;;;;11.97;2.83;;;11.30;99.90;;;;;;5035908;28;20486;-65
2022/01/03 09:36:21;;;;;;;11.13;2.67;;;11.40;99.90;;;;;;5036177;28;20445;-65
2022/01/03 09:38:47;;;;;;;15.60;2.80;;;11.40;99.90;;;;;;5035798;28;20438;-65
2022/01/03 09:41:20;;;;;;;6.67;2.70;;;11.50;99.90;;;;;;5035790;28;20471;-65
2022/01/03 09:43:50;;;;;;;10.40;2.97;;;11.60;99.90;;;;;;5035775;28;20437;-65
2022/01/03 09:46:21;;;;;;;18.07;4.00;;;11.70;99.90;;;;;;5036372;28;20446;-65
2022/01/03 09:48:52;;;;;;;11.40;3.10;;;11.70;99.90;;;;;;5035630;28;20446;-65
2022/01/03 09:51:21;;;;;;;13.20;2.63;;;11.80;99.90;;;;;;5035426;28;20489;-65
2022/01/03 09:53:50;;;;;;;14.77;3.43;;;11.80;99.90;;;;;;5034597;28;20451;-65
2022/01/03 09:56:18;;;;;;;11.97;3.00;;;11.80;99.90;;;;;;5035530;28;20522;-65
2022/01/03 09:58:45;;;;;;;12.23;3.10;;;11.90;99.90;;;;;;5035129;28;20933;-65
2022/01/03 10:01:12;;;;;;;11.17;2.50;;;11.90;99.90;;;;;;5035333;28;20470;-65
2022/01/03 10:03:41;;;;;;;8.70;2.40;;;11.80;99.90;;;;;;5035317;28;20461;-65
2022/01/03 10:06:08;;;;;;;8.60;3.33;;;11.80;99.90;;;;;;5035238;28;20446;-65
2022/01/03 10:08:35;;;;;;;9.90;2.83;;;11.90;99.90;;;;;;5035274;28;20451;-65
2022/01/03 10:11:02;;;;;;;12.23;3.27;;;11.90;99.90;;;;;;5035074;28;20845;-65
2022/01/03 10:13:30;;;;;;;16.37;2.60;;;11.90;99.90;;;;;;5035165;28;20803;-65
2022/01/03 10:15:56;;;;;;;15.70;5.37;;;11.90;99.90;;;;;;5035123;28;20457;-65
2022/01/03 10:18:23;;;;;;;15.20;3.93;;;11.90;99.90;;;;;;5035013;28;20453;-65
2022/01/03 10:20:50;;;;;;;14.17;2.67;;;11.90;99.90;;;;;;5034907;28;20493;-65
2022/01/03 10:23:18;;;;;;;16.77;3.00;;;12.00;99.90;;;;;;5034790;28;20549;-65
2022/01/03 10:25:46;;;;;;;10.50;3.17;;;12.00;99.90;;;;;;5034951;28;20496;-65
2022/01/03 10:28:23;;;;;;;14.50;3.03;;;12.10;99.90;;;;;;5034891;28;20446;-65
2022/01/03 10:30:51;;;;;;;12.93;2.90;;;12.10;99.90;;;;;;5035036;28;20482;-65
2022/01/03 10:33:20;;;;;;;14.10;3.10;;;12.10;99.90;;;;;;5034477;28;20454;-65
2022/01/03 10:35:49;;;;;;;11.73;2.80;;;12.10;99.90;;;;;;5034704;28;20454;-65
2022/01/03 10:38:32;;;;;;;13.50;3.20;;;12.20;99.90;;;;;;5034716;28;20454;-65
2022/01/03 10:41:11;;;;;;;14.63;3.97;;;12.30;99.90;;;;;;5034890;28;20469;-65
2022/01/03 10:43:38;;;;;;;16.70;3.53;;;12.30;99.90;;;;;;5034602;28;20426;-65
2022/01/03 10:46:19;;;;;;;13.07;3.60;;;12.20;99.90;;;;;;5034604;28;20454;-65
2022/01/03 10:48:47;;;;;;;14.50;2.50;;;12.30;99.90;;;;;;5034538;28;20434;-65
2022/01/03 10:51:21;;;;;;;13.60;3.53;;;12.20;99.90;;;;;;5034085;28;20556;-65
2022/01/03 10:53:50;;;;;;;11.30;2.77;;;12.20;99.90;;;;;;5035176;28;20454;-65
2022/01/03 10:56:23;;;;;;;9.33;2.00;;;12.20;99.90;;;;;;5034320;28;20461;-65
2022/01/03 10:58:50;;;;;;;12.67;2.80;;;12.20;99.90;;;;;;5034295;28;20453;-65
2022/01/03 11:01:21;;;;;;;12.60;3.00;;;12.30;99.90;;;;;;5034228;28;20490;-65
2022/01/03 11:03:48;;;;;;;13.23;2.50;;;12.40;99.90;;;;;;5033735;28;20463;-65
2022/01/03 11:06:23;;;;;;;16.33;2.53;;;12.30;99.90;;;;;;5033577;28;20454;-65
2022/01/03 11:11:38;;;;;;;10.70;2.63;;;12.30;99.90;;;;;;5033999;28;20473;-65
2022/01/03 11:14:05;;;;;;;8.83;1.80;;;12.30;99.90;;;;;;5033891;28;20453;-65
2022/01/03 11:16:34;;;;;;;8.47;2.97;;;12.20;99.90;;;;;;5033716;28;20998;-65
2022/01/03 11:19:01;;;;;;;7.60;2.17;;;12.20;99.90;;;;;;5033959;28;20525;-65
2022/01/03 11:21:30;;;;;;;9.50;2.63;;;12.20;99.90;;;;;;5033859;28;20861;-65
2022/01/03 11:24:08;;;;;;;8.17;2.93;;;12.20;99.90;;;;;;5033760;28;20835;-65
2022/01/03 11:26:38;;;;;;;11.90;2.40;;;12.40;99.90;;;;;;5033901;28;20430;-65
2022/01/03 11:29:05;;;;;;;8.23;2.80;;;12.50;99.90;;;;;;5033525;28;20489;-65
2022/01/03 11:31:38;;;;;;;8.07;2.40;;;12.60;99.90;;;;;;5033612;28;20482;-65
2022/01/03 11:34:06;;;;;;;10.27;2.87;;;12.70;99.90;;;;;;5033763;28;20430;-65
2022/01/03 11:36:33;;;;;;;11.93;2.33;;;12.70;99.50;;;;;;5033709;28;20450;-65
2022/01/03 11:39:05;;;;;;;14.20;2.80;;;12.60;99.50;;;;;;5033667;28;20458;-65
2022/01/03 11:41:32;;;;;;;7.90;2.10;;;12.50;99.60;;;;;;5033321;28;20465;-65
2022/01/03 11:43:59;;;;;;;11.63;2.70;;;12.50;99.90;;;;;;5033662;28;20450;-65
2022/01/03 11:46:26;;;;;;;8.77;2.70;;;12.40;99.90;;;;;;5033621;28;20438;-65
2022/01/03 11:48:55;;;;;;;8.13;2.20;;;12.30;99.90;;;;;;5033829;28;20447;-65
2022/01/03 11:51:23;;;;;;;11.07;2.30;;;12.20;99.90;;;;;;5033584;28;20558;-65
2022/01/03 11:53:51;;;;;;;8.47;2.60;;;12.20;99.90;;;;;;5033197;28;20932;-65
2022/01/03 11:56:20;;;;;;;13.10;3.07;;;12.10;99.90;;;;;;5033485;28;20447;-65
2022/01/03 11:58:54;;;;;;;10.70;3.17;;;12.10;99.90;;;;;;5033477;28;20450;-65
2022/01/03 12:04:17;;;;;;;14.47;2.97;;;12.00;99.90;;;;;;5033465;28;20485;-65
2022/01/03 12:06:45;;;;;;;12.77;5.10;;;12.00;99.90;;;;;;5034468;28;20442;-65
2022/01/03 12:09:14;;;;;;;15.53;3.00;;;12.00;99.90;;;;;;5033106;28;20969;-65
2022/01/03 12:11:46;;;;;;;13.03;2.67;;;12.00;99.90;;;;;;5032864;28;20882;-65
2022/01/03 12:14:16;;;;;;;15.70;3.97;;;12.00;99.90;;;;;;5033281;28;20796;-65
2022/01/03 12:16:46;;;;;;;12.60;3.77;;;11.90;99.90;;;;;;5036139;28;20450;-65
2022/01/03 12:19:29;;;;;;;14.10;3.10;;;11.90;99.90;;;;;;5037457;28;20870;-65
2022/01/03 12:21:58;;;;;;;12.93;3.83;;;11.90;99.90;;;;;;5037265;28;20462;-65
2022/01/03 12:24:54;;;;;;;13.17;3.07;;;11.80;99.90;;;;;;5037410;28;20513;-66
2022/01/03 12:27:26;;;;;;;12.27;3.20;;;11.80;99.90;;;;;;5037669;28;20427;-65
2022/01/03 12:30:30;;;;;;;17.33;3.67;;;11.60;99.90;;;;;;5037730;28;20407;-65
2022/01/03 12:33:17;;;;;;;11.40;2.80;;;11.50;99.90;;;;;;5037470;28;20481;-65
2022/01/03 12:35:47;;;;;;;10.93;2.60;;;11.30;99.90;;;;;;5036835;28;20512;-65
2022/01/03 12:38:29;;;;;;;15.07;2.60;;;11.20;99.90;;;;;;5037039;28;20458;-65
2022/01/03 12:41:01;;;;;;;9.10;3.27;;;11.10;99.90;;;;;;5036925;28;20531;-65
2022/01/03 12:43:37;;;;;;;17.70;2.60;;;11.10;99.90;;;;;;5036935;28;20466;-65
2022/01/03 12:46:05;;;;;;;8.93;2.70;;;11.00;99.90;;;;;;5036830;28;20446;-65
2022/01/03 12:48:33;;;;;;;13.10;1.93;;;10.90;99.90;;;;;;5036778;28;20474;-65
2022/01/03 12:51:12;;;;;;;6.17;2.00;;;10.80;99.90;;;;;;5036829;28;20462;-65
2022/01/03 12:53:47;;;;;;;6.30;1.10;;;10.70;99.90;;;;;;5036760;28;20438;-65
2022/01/03 12:56:15;;;;;;;7.10;1.90;;;10.60;99.90;;;;;;5036665;28;20800;-65
2022/01/03 12:58:44;;;;;;;4.53;1.30;;;10.60;99.90;;;;;;5036605;28;20450;-65
2022/01/03 13:01:28;;;;;;;8.20;2.97;;;10.50;99.90;;;;;;5036140;28;20836;-65
2022/01/03 13:03:56;;;;;;;4.73;1.40;;;10.40;99.90;;;;;;5036573;28;20931;-65